sensor_id;sensor_type;location;lat;lon;timestamp;temperature;humidity
50570;DHT22;36525;49.398;7.614;2023-02-01T00:01:18;4.50;99.90
50570;DHT22;36525;49.398;7.614;2023-02-01T00:03:45;4.50;99.90
50570;DHT22;36525;49.398;7.614;2023-02-01T00:06:12;4.50;99.90
50570;DHT22;36525;49.398;7.614;2023-02-01T00:08:39;4.50;99.90
50570;DHT22;36525;49.398;7.614;2023-02-01T00:11:08;4.60;99.90
50570;DHT22;36525;49.398;7.614;2023-02-01T00:13:39;4.60;99.90
50570;DHT22;36525;49.398;7.614;2023-02-01T00:16:16;4.50;99.90
50570;DHT22;36525;49.398;7.614;2023-02-01T00:18:46;4.50;99.90
50570;DHT22;36525;49.398;7.614;2023-02-01T00:21:16;4.50;99.90
50570;DHT22;36525;49.398;7.614;2023-02-01T00:23:47;4.50;99.90
50570;DHT22;36525;49.398;7.614;2023-02-01T00:26:17;4.50;99.90
50570;DHT22;36525;49.398;7.614;2023-02-01T00:29:16;4.50;99.90
50570;DHT22;36525;49.398;7.614;2023-02-01T00:31:44;4.50;99.90
50570;DHT22;36525;49.398;7.614;2023-02-01T00:34:15;4.40;99.90
50570;DHT22;36525;49.398;7.614;2023-02-01T00:36:43;4.40;99.90
50570;DHT22;36525;49.398;7.614;2023-02-01T00:39:11;4.40;99.90
50570;DHT22;36525;49.398;7.614;2023-02-01T00:41:38;4.40;99.90
50570;DHT22;36525;49.398;7.614;2023-02-01T00:44:05;4.40;99.90
50570;DHT22;36525;49.398;7.614;2023-02-01T00:46:32;4.50;99.90
50570;DHT22;36525;49.398;7.614;2023-02-01T00:49:00;4.40;99.90
50570;DHT22;36525;49.398;7.614;2023-02-01T00:51:28;4.40;99.90
50570;DHT22;36525;49.398;7.614;2023-02-01T00:53:56;4.40;99.90
50570;DHT22;36525;49.398;7.614;2023-02-01T00:56:23;4.40;99.90
50570;DHT22;36525;49.398;7.614;2023-02-01T00:58:50;4.50;99.90
50570;DHT22;36525;49.398;7.614;2023-02-01T01:01:25;4.40;99.90
50570;DHT22;36525;49.398;7.614;2023-02-01T01:03:55;4.50;99.90
50570;DHT22;36525;49.398;7.614;2023-02-01T01:06:29;4.50;99.90
50570;DHT22;36525;49.398;7.614;2023-02-01T01:09:00;4.40;99.90
50570;DHT22;36525;49.398;7.614;2023-02-01T01:11:35;4.40;99.90
50570;DHT22;36525;49.398;7.614;2023-02-01T01:14:05;4.40;99.90
50570;DHT22;36525;49.398;7.614;2023-02-01T01:16:34;4.50;99.90
50570;DHT22;36525;49.398;7.614;2023-02-01T01:19:02;4.40;99.90
50570;DHT22;36525;49.398;7.614;2023-02-01T01:21:29;4.50;99.90
50570;DHT22;36525;49.398;7.614;2023-02-01T01:23:57;4.60;99.90
50570;DHT22;36525;49.398;7.614;2023-02-01T01:26:26;4.50;99.90
50570;DHT22;36525;49.398;7.614;2023-02-01T01:28:56;4.40;99.90
50570;DHT22;36525;49.398;7.614;2023-02-01T01:31:24;4.40;99.90
50570;DHT22;36525;49.398;7.614;2023-02-01T01:33:54;4.40;99.90
50570;DHT22;36525;49.398;7.614;2023-02-01T01:36:21;4.40;99.90
50570;DHT22;36525;49.398;7.614;2023-02-01T01:38:49;4.30;99.90
50570;DHT22;36525;49.398;7.614;2023-02-01T01:41:24;4.40;99.90
50570;DHT22;36525;49.398;7.614;2023-02-01T01:43:57;4.40;99.90
50570;DHT22;36525;49.398;7.614;2023-02-01T01:46:27;4.50;99.90
50570;DHT22;36525;49.398;7.614;2023-02-01T01:51:30;4.50;99.90
50570;DHT22;36525;49.398;7.614;2023-02-01T01:54:11;4.60;99.90
50570;DHT22;36525;49.398;7.614;2023-02-01T01:56:44;4.50;99.90
50570;DHT22;36525;49.398;7.614;2023-02-01T01:59:15;4.50;99.90
50570;DHT22;36525;49.398;7.614;2023-02-01T02:01:43;4.50;99.90
50570;DHT22;36525;49.398;7.614;2023-02-01T02:04:10;4.50;99.90
50570;DHT22;36525;49.398;7.614;2023-02-01T02:09:25;4.60;99.90
50570;DHT22;36525;49.398;7.614;2023-02-01T02:11:52;4.50;99.90
50570;DHT22;36525;49.398;7.614;2023-02-01T02:14:21;4.50;99.90
50570;DHT22;36525;49.398;7.614;2023-02-01T02:17:11;4.40;99.90
50570;DHT22;36525;49.398;7.614;2023-02-01T02:35:33;4.50;99.90
50570;DHT22;36525;49.398;7.614;2023-02-01T02:38:18;4.40;99.90
50570;DHT22;36525;49.398;7.614;2023-02-01T02:41:18;4.50;99.90
50570;DHT22;36525;49.398;7.614;2023-02-01T02:44:14;4.50;99.90
50570;DHT22;36525;49.398;7.614;2023-02-01T02:47:16;4.50;99.90
50570;DHT22;36525;49.398;7.614;2023-02-01T02:53:19;4.50;99.90
50570;DHT22;36525;49.398;7.614;2023-02-01T02:56:09;4.50;99.90
50570;DHT22;36525;49.398;7.614;2023-02-01T02:58:56;4.50;99.90
50570;DHT22;36525;49.398;7.614;2023-02-01T03:01:43;4.50;99.90
50570;DHT22;36525;49.398;7.614;2023-02-01T03:04:29;4.50;99.90
50570;DHT22;36525;49.398;7.614;2023-02-01T03:06:56;4.50;99.90
50570;DHT22;36525;49.398;7.614;2023-02-01T03:09:31;4.40;99.90
50570;DHT22;36525;49.398;7.614;2023-02-01T03:12:07;4.40;99.90
50570;DHT22;36525;49.398;7.614;2023-02-01T03:15:01;4.40;99.90
50570;DHT22;36525;49.398;7.614;2023-02-01T03:17:37;4.40;99.90
50570;DHT22;36525;49.398;7.614;2023-02-01T03:20:07;4.50;99.90
50570;DHT22;36525;49.398;7.614;2023-02-01T03:22:38;4.40;99.90
50570;DHT22;36525;49.398;7.614;2023-02-01T03:25:14;4.50;99.90
50570;DHT22;36525;49.398;7.614;2023-02-01T03:28:07;4.40;99.90
50570;DHT22;36525;49.398;7.614;2023-02-01T03:30:43;4.50;99.90
50570;DHT22;36525;49.398;7.614;2023-02-01T03:33:15;4.50;99.90
50570;DHT22;36525;49.398;7.614;2023-02-01T03:41:31;4.30;99.90
50570;DHT22;36525;49.398;7.614;2023-02-01T03:44:26;4.40;99.90
50570;DHT22;36525;49.398;7.614;2023-02-01T03:49:44;4.40;99.90
50570;DHT22;36525;49.398;7.614;2023-02-01T03:52:22;4.40;99.90
50570;DHT22;36525;49.398;7.614;2023-02-01T03:54:52;4.40;99.90
50570;DHT22;36525;49.398;7.614;2023-02-01T03:57:23;4.50;99.90
50570;DHT22;36525;49.398;7.614;2023-02-01T04:00:08;4.50;99.90
50570;DHT22;36525;49.398;7.614;2023-02-01T04:02:41;4.50;99.90
50570;DHT22;36525;49.398;7.614;2023-02-01T04:05:09;4.60;99.90
50570;DHT22;36525;49.398;7.614;2023-02-01T04:07:36;4.60;99.90
50570;DHT22;36525;49.398;7.614;2023-02-01T04:10:03;4.60;99.90
50570;DHT22;36525;49.398;7.614;2023-02-01T04:12:30;4.70;99.90
50570;DHT22;36525;49.398;7.614;2023-02-01T04:14:57;4.70;99.90
50570;DHT22;36525;49.398;7.614;2023-02-01T04:17:24;4.70;99.90
50570;DHT22;36525;49.398;7.614;2023-02-01T04:19:51;4.70;99.90
50570;DHT22;36525;49.398;7.614;2023-02-01T04:22:21;4.70;99.90
50570;DHT22;36525;49.398;7.614;2023-02-01T04:24:48;4.70;99.90
50570;DHT22;36525;49.398;7.614;2023-02-01T04:27:15;4.70;99.90
50570;DHT22;36525;49.398;7.614;2023-02-01T04:29:42;4.70;99.90
50570;DHT22;36525;49.398;7.614;2023-02-01T04:32:09;4.80;99.90
50570;DHT22;36525;49.398;7.614;2023-02-01T04:34:36;4.80;99.90
50570;DHT22;36525;49.398;7.614;2023-02-01T04:37:03;4.80;99.90
50570;DHT22;36525;49.398;7.614;2023-02-01T04:39:30;4.70;99.90
50570;DHT22;36525;49.398;7.614;2023-02-01T04:41:57;4.70;99.90
50570;DHT22;36525;49.398;7.614;2023-02-01T04:44:24;4.70;99.90
50570;DHT22;36525;49.398;7.614;2023-02-01T04:46:51;4.70;99.90
50570;DHT22;36525;49.398;7.614;2023-02-01T04:49:18;4.70;99.90
50570;DHT22;36525;49.398;7.614;2023-02-01T04:51:47;4.60;99.90
50570;DHT22;36525;49.398;7.614;2023-02-01T04:54:14;4.50;99.90
50570;DHT22;36525;49.398;7.614;2023-02-01T04:56:42;4.50;99.90
50570;DHT22;36525;49.398;7.614;2023-02-01T04:59:11;4.50;99.90
50570;DHT22;36525;49.398;7.614;2023-02-01T05:01:38;4.50;99.90
50570;DHT22;36525;49.398;7.614;2023-02-01T05:04:05;4.60;99.90
50570;DHT22;36525;49.398;7.614;2023-02-01T05:06:32;4.60;99.90
50570;DHT22;36525;49.398;7.614;2023-02-01T05:08:59;4.60;99.90
50570;DHT22;36525;49.398;7.614;2023-02-01T05:11:26;4.60;99.90
50570;DHT22;36525;49.398;7.614;2023-02-01T05:14:11;4.60;99.90
50570;DHT22;36525;49.398;7.614;2023-02-01T05:16:40;4.60;99.90
50570;DHT22;36525;49.398;7.614;2023-02-01T05:19:07;4.60;99.90
50570;DHT22;36525;49.398;7.614;2023-02-01T05:21:34;4.60;99.90
50570;DHT22;36525;49.398;7.614;2023-02-01T05:24:01;4.60;99.90
50570;DHT22;36525;49.398;7.614;2023-02-01T05:26:38;4.60;99.90
50570;DHT22;36525;49.398;7.614;2023-02-01T05:29:09;4.60;99.90
50570;DHT22;36525;49.398;7.614;2023-02-01T05:31:37;4.60;99.90
50570;DHT22;36525;49.398;7.614;2023-02-01T05:34:05;4.50;99.90
50570;DHT22;36525;49.398;7.614;2023-02-01T05:36:33;4.60;99.90
50570;DHT22;36525;49.398;7.614;2023-02-01T05:39:00;4.60;99.90
50570;DHT22;36525;49.398;7.614;2023-02-01T05:41:26;4.60;99.90
50570;DHT22;36525;49.398;7.614;2023-02-01T05:43:54;4.50;99.90
50570;DHT22;36525;49.398;7.614;2023-02-01T05:46:21;4.60;99.90
50570;DHT22;36525;49.398;7.614;2023-02-01T05:48:48;4.40;99.90
50570;DHT22;36525;49.398;7.614;2023-02-01T05:51:15;4.40;99.90
50570;DHT22;36525;49.398;7.614;2023-02-01T05:53:44;4.40;99.90
50570;DHT22;36525;49.398;7.614;2023-02-01T05:56:11;4.30;99.90
50570;DHT22;36525;49.398;7.614;2023-02-01T05:58:38;4.30;99.90
50570;DHT22;36525;49.398;7.614;2023-02-01T06:01:05;4.30;99.90
50570;DHT22;36525;49.398;7.614;2023-02-01T06:03:32;4.30;99.90
50570;DHT22;36525;49.398;7.614;2023-02-01T06:05:59;4.40;99.90
50570;DHT22;36525;49.398;7.614;2023-02-01T06:08:27;4.50;99.90
50570;DHT22;36525;49.398;7.614;2023-02-01T06:11:02;4.50;99.90
50570;DHT22;36525;49.398;7.614;2023-02-01T06:13:31;4.50;99.90
50570;DHT22;36525;49.398;7.614;2023-02-01T06:16:03;4.50;99.90
50570;DHT22;36525;49.398;7.614;2023-02-01T06:18:34;4.50;99.90
50570;DHT22;36525;49.398;7.614;2023-02-01T06:21:02;4.50;99.90
50570;DHT22;36525;49.398;7.614;2023-02-01T06:23:30;4.70;99.90
50570;DHT22;36525;49.398;7.614;2023-02-01T06:26:07;4.70;99.90
50570;DHT22;36525;49.398;7.614;2023-02-01T06:28:37;4.60;99.90
50570;DHT22;36525;49.398;7.614;2023-02-01T06:31:06;4.70;99.90
50570;DHT22;36525;49.398;7.614;2023-02-01T06:33:34;4.70;99.90
50570;DHT22;36525;49.398;7.614;2023-02-01T06:36:04;4.80;99.90
50570;DHT22;36525;49.398;7.614;2023-02-01T06:38:33;4.70;99.90
50570;DHT22;36525;49.398;7.614;2023-02-01T06:41:03;4.70;99.90
50570;DHT22;36525;49.398;7.614;2023-02-01T06:43:30;4.60;99.90
50570;DHT22;36525;49.398;7.614;2023-02-01T06:46:03;4.70;99.90
50570;DHT22;36525;49.398;7.614;2023-02-01T06:48:32;4.70;99.90
50570;DHT22;36525;49.398;7.614;2023-02-01T06:51:00;4.70;99.90
50570;DHT22;36525;49.398;7.614;2023-02-01T06:53:27;4.70;99.90
50570;DHT22;36525;49.398;7.614;2023-02-01T06:56:02;4.60;99.90
50570;DHT22;36525;49.398;7.614;2023-02-01T06:58:33;4.60;99.90
50570;DHT22;36525;49.398;7.614;2023-02-01T07:01:07;4.60;99.90
50570;DHT22;36525;49.398;7.614;2023-02-01T07:03:35;4.50;99.90
50570;DHT22;36525;49.398;7.614;2023-02-01T07:06:03;4.60;99.90
50570;DHT22;36525;49.398;7.614;2023-02-01T07:08:32;4.40;99.90
50570;DHT22;36525;49.398;7.614;2023-02-01T07:11:09;4.50;99.90
50570;DHT22;36525;49.398;7.614;2023-02-01T07:13:38;4.50;99.90
50570;DHT22;36525;49.398;7.614;2023-02-01T07:16:12;4.40;99.90
50570;DHT22;36525;49.398;7.614;2023-02-01T07:18:41;4.40;99.90
50570;DHT22;36525;49.398;7.614;2023-02-01T07:21:09;4.40;99.90
50570;DHT22;36525;49.398;7.614;2023-02-01T07:23:37;4.40;99.90
50570;DHT22;36525;49.398;7.614;2023-02-01T07:26:06;4.40;99.90
50570;DHT22;36525;49.398;7.614;2023-02-01T07:28:35;4.30;99.90
50570;DHT22;36525;49.398;7.614;2023-02-01T07:33:32;4.50;99.90
50570;DHT22;36525;49.398;7.614;2023-02-01T07:36:18;4.50;99.90
50570;DHT22;36525;49.398;7.614;2023-02-01T07:38:46;4.60;99.90
50570;DHT22;36525;49.398;7.614;2023-02-01T07:41:19;4.60;99.90
50570;DHT22;36525;49.398;7.614;2023-02-01T07:43:46;4.70;99.90
50570;DHT22;36525;49.398;7.614;2023-02-01T07:46:13;4.70;99.90
50570;DHT22;36525;49.398;7.614;2023-02-01T07:48:42;4.70;99.90
50570;DHT22;36525;49.398;7.614;2023-02-01T07:51:14;4.70;99.90
50570;DHT22;36525;49.398;7.614;2023-02-01T07:53:44;4.80;99.90
50570;DHT22;36525;49.398;7.614;2023-02-01T07:56:13;4.80;99.90
50570;DHT22;36525;49.398;7.614;2023-02-01T07:58:42;4.70;99.90
50570;DHT22;36525;49.398;7.614;2023-02-01T08:01:30;4.70;99.90
50570;DHT22;36525;49.398;7.614;2023-02-01T08:03:58;4.80;99.90
50570;DHT22;36525;49.398;7.614;2023-02-01T08:06:32;4.80;99.90
50570;DHT22;36525;49.398;7.614;2023-02-01T08:09:01;4.80;99.90
50570;DHT22;36525;49.398;7.614;2023-02-01T08:11:30;4.90;99.90
50570;DHT22;36525;49.398;7.614;2023-02-01T08:13:58;4.90;99.90
50570;DHT22;36525;49.398;7.614;2023-02-01T08:16:25;5.00;99.90
50570;DHT22;36525;49.398;7.614;2023-02-01T08:18:55;5.00;99.90
50570;DHT22;36525;49.398;7.614;2023-02-01T08:21:25;5.00;99.90
50570;DHT22;36525;49.398;7.614;2023-02-01T08:23:53;4.90;99.90
50570;DHT22;36525;49.398;7.614;2023-02-01T08:26:23;4.90;99.90
50570;DHT22;36525;49.398;7.614;2023-02-01T08:28:56;4.90;99.90
50570;DHT22;36525;49.398;7.614;2023-02-01T08:31:26;5.00;99.90
50570;DHT22;36525;49.398;7.614;2023-02-01T08:33:57;5.10;99.90
50570;DHT22;36525;49.398;7.614;2023-02-01T08:36:27;5.10;99.90
50570;DHT22;36525;49.398;7.614;2023-02-01T08:38:56;5.20;99.90
50570;DHT22;36525;49.398;7.614;2023-02-01T08:41:26;5.20;99.90
50570;DHT22;36525;49.398;7.614;2023-02-01T08:43:58;5.30;99.90
50570;DHT22;36525;49.398;7.614;2023-02-01T08:46:25;5.40;99.90
50570;DHT22;36525;49.398;7.614;2023-02-01T08:48:53;5.30;99.90
50570;DHT22;36525;49.398;7.614;2023-02-01T08:51:22;5.30;99.90
50570;DHT22;36525;49.398;7.614;2023-02-01T08:53:50;5.40;99.90
50570;DHT22;36525;49.398;7.614;2023-02-01T08:56:19;5.40;99.90
50570;DHT22;36525;49.398;7.614;2023-02-01T08:58:46;5.40;99.90
50570;DHT22;36525;49.398;7.614;2023-02-01T09:01:15;5.30;99.90
50570;DHT22;36525;49.398;7.614;2023-02-01T09:03:43;5.40;99.90
50570;DHT22;36525;49.398;7.614;2023-02-01T09:06:12;5.40;99.90
50570;DHT22;36525;49.398;7.614;2023-02-01T09:08:41;5.30;99.90
50570;DHT22;36525;49.398;7.614;2023-02-01T09:11:13;5.40;99.90
50570;DHT22;36525;49.398;7.614;2023-02-01T09:13:43;5.30;99.90
50570;DHT22;36525;49.398;7.614;2023-02-01T09:16:10;5.20;99.90
50570;DHT22;36525;49.398;7.614;2023-02-01T09:18:37;5.30;99.90
50570;DHT22;36525;49.398;7.614;2023-02-01T09:21:21;5.30;99.90
50570;DHT22;36525;49.398;7.614;2023-02-01T09:23:50;5.30;99.90
50570;DHT22;36525;49.398;7.614;2023-02-01T09:26:17;5.40;99.90
50570;DHT22;36525;49.398;7.614;2023-02-01T09:28:48;5.40;99.90
50570;DHT22;36525;49.398;7.614;2023-02-01T09:31:15;5.30;99.90
50570;DHT22;36525;49.398;7.614;2023-02-01T09:33:42;5.40;99.90
50570;DHT22;36525;49.398;7.614;2023-02-01T09:36:09;5.50;99.90
50570;DHT22;36525;49.398;7.614;2023-02-01T09:38:36;5.50;99.90
50570;DHT22;36525;49.398;7.614;2023-02-01T09:41:47;5.40;99.90
50570;DHT22;36525;49.398;7.614;2023-02-01T09:47:35;5.20;99.90
50570;DHT22;36525;49.398;7.614;2023-02-01T09:50:19;5.30;99.90
50570;DHT22;36525;49.398;7.614;2023-02-01T09:53:03;5.30;99.90
50570;DHT22;36525;49.398;7.614;2023-02-01T09:55:47;5.20;99.90
50570;DHT22;36525;49.398;7.614;2023-02-01T09:58:35;5.20;99.90
50570;DHT22;36525;49.398;7.614;2023-02-01T10:01:16;5.30;99.90
50570;DHT22;36525;49.398;7.614;2023-02-01T10:03:46;5.40;99.90
50570;DHT22;36525;49.398;7.614;2023-02-01T10:12:48;5.60;99.90
50570;DHT22;36525;49.398;7.614;2023-02-01T10:24:02;5.70;99.90
50570;DHT22;36525;49.398;7.614;2023-02-01T10:26:47;5.70;99.90
50570;DHT22;36525;49.398;7.614;2023-02-01T10:29:26;5.70;99.90
50570;DHT22;36525;49.398;7.614;2023-02-01T10:31:57;5.60;99.90
50570;DHT22;36525;49.398;7.614;2023-02-01T10:34:28;5.60;99.90
50570;DHT22;36525;49.398;7.614;2023-02-01T10:37:10;5.50;99.90
50570;DHT22;36525;49.398;7.614;2023-02-01T10:39:49;5.50;99.90
50570;DHT22;36525;49.398;7.614;2023-02-01T10:42:24;5.40;99.90
50570;DHT22;36525;49.398;7.614;2023-02-01T10:44:56;5.40;99.90
50570;DHT22;36525;49.398;7.614;2023-02-01T10:47:24;5.50;99.90
50570;DHT22;36525;49.398;7.614;2023-02-01T10:58:28;5.50;99.90
50570;DHT22;36525;49.398;7.614;2023-02-01T11:01:03;5.50;99.90
50570;DHT22;36525;49.398;7.614;2023-02-01T11:03:44;5.40;99.90
50570;DHT22;36525;49.398;7.614;2023-02-01T11:08:51;5.40;99.90
50570;DHT22;36525;49.398;7.614;2023-02-01T11:11:20;5.40;99.90
50570;DHT22;36525;49.398;7.614;2023-02-01T11:14:00;5.40;99.90
50570;DHT22;36525;49.398;7.614;2023-02-01T11:16:35;5.40;99.90
50570;DHT22;36525;49.398;7.614;2023-02-01T11:19:05;5.40;99.90
50570;DHT22;36525;49.398;7.614;2023-02-01T11:21:38;5.30;99.90
50570;DHT22;36525;49.398;7.614;2023-02-01T11:24:06;5.30;99.90
50570;DHT22;36525;49.398;7.614;2023-02-01T11:26:40;5.40;99.90
50570;DHT22;36525;49.398;7.614;2023-02-01T11:29:13;5.40;99.90
50570;DHT22;36525;49.398;7.614;2023-02-01T11:31:44;5.40;99.90
50570;DHT22;36525;49.398;7.614;2023-02-01T11:34:16;5.40;99.90
50570;DHT22;36525;49.398;7.614;2023-02-01T11:36:47;5.40;99.90
50570;DHT22;36525;49.398;7.614;2023-02-01T11:39:30;5.50;99.90
50570;DHT22;36525;49.398;7.614;2023-02-01T11:42:15;5.40;99.90
50570;DHT22;36525;49.398;7.614;2023-02-01T11:44:45;5.30;99.90
50570;DHT22;36525;49.398;7.614;2023-02-01T11:49:56;5.30;99.90
50570;DHT22;36525;49.398;7.614;2023-02-01T11:55:52;5.40;99.90
50570;DHT22;36525;49.398;7.614;2023-02-01T12:07:48;5.50;99.90
50570;DHT22;36525;49.398;7.614;2023-02-01T12:13:13;5.60;99.90
50570;DHT22;36525;49.398;7.614;2023-02-01T12:18:58;5.80;99.90
50570;DHT22;36525;49.398;7.614;2023-02-01T12:30:35;5.70;99.90
50570;DHT22;36525;49.398;7.614;2023-02-01T12:36:12;5.60;99.90
50570;DHT22;36525;49.398;7.614;2023-02-01T12:45:11;5.80;99.90
50570;DHT22;36525;49.398;7.614;2023-02-01T12:47:46;5.80;99.90
50570;DHT22;36525;49.398;7.614;2023-02-01T12:50:21;5.70;99.90
50570;DHT22;36525;49.398;7.614;2023-02-01T12:56:09;5.60;99.90
50570;DHT22;36525;49.398;7.614;2023-02-01T12:58:48;5.60;99.90
50570;DHT22;36525;49.398;7.614;2023-02-01T13:04:40;5.50;99.90
50570;DHT22;36525;49.398;7.614;2023-02-01T13:07:21;5.60;99.90
50570;DHT22;36525;49.398;7.614;2023-02-01T13:09:59;5.70;99.90
50570;DHT22;36525;49.398;7.614;2023-02-01T13:12:43;5.60;99.90
50570;DHT22;36525;49.398;7.614;2023-02-01T13:15:25;5.80;99.90
50570;DHT22;36525;49.398;7.614;2023-02-01T13:18:33;5.90;99.90
50570;DHT22;36525;49.398;7.614;2023-02-01T13:21:18;5.90;99.90
50570;DHT22;36525;49.398;7.614;2023-02-01T13:23:50;5.90;99.90
50570;DHT22;36525;49.398;7.614;2023-02-01T13:26:19;5.90;99.90
50570;DHT22;36525;49.398;7.614;2023-02-01T13:28:57;5.90;99.90
50570;DHT22;36525;49.398;7.614;2023-02-01T13:34:45;5.80;99.90
50570;DHT22;36525;49.398;7.614;2023-02-01T13:41:23;5.90;99.90
50570;DHT22;36525;49.398;7.614;2023-02-01T13:44:10;5.90;99.90
50570;DHT22;36525;49.398;7.614;2023-02-01T13:46:45;5.90;99.90
50570;DHT22;36525;49.398;7.614;2023-02-01T13:49:39;5.80;99.90
50570;DHT22;36525;49.398;7.614;2023-02-01T13:57:49;5.80;99.90
50570;DHT22;36525;49.398;7.614;2023-02-01T14:00:30;5.90;99.90
50570;DHT22;36525;49.398;7.614;2023-02-01T14:10:48;6.10;99.90
50570;DHT22;36525;49.398;7.614;2023-02-01T14:13:36;6.20;99.90
50570;DHT22;36525;49.398;7.614;2023-02-01T14:16:15;6.10;99.90
50570;DHT22;36525;49.398;7.614;2023-02-01T14:34:40;6.10;99.90
50570;DHT22;36525;49.398;7.614;2023-02-01T15:01:31;6.00;99.90
50570;DHT22;36525;49.398;7.614;2023-02-01T15:06:50;8.00;99.90
50570;DHT22;36525;49.398;7.614;2023-02-01T15:09:32;8.30;99.90
50570;DHT22;36525;49.398;7.614;2023-02-01T15:12:14;9.20;99.90
50570;DHT22;36525;49.398;7.614;2023-02-01T15:15:23;9.60;99.90
50570;DHT22;36525;49.398;7.614;2023-02-01T15:17:56;8.40;99.90
50570;DHT22;36525;49.398;7.614;2023-02-01T15:20:31;7.70;99.90
50570;DHT22;36525;49.398;7.614;2023-02-01T15:25:33;6.80;99.90
50570;DHT22;36525;49.398;7.614;2023-02-01T15:28:03;6.40;99.90
50570;DHT22;36525;49.398;7.614;2023-02-01T15:30:34;6.20;99.90
50570;DHT22;36525;49.398;7.614;2023-02-01T15:35:46;5.90;99.90
50570;DHT22;36525;49.398;7.614;2023-02-01T15:46:40;5.60;99.90
50570;DHT22;36525;49.398;7.614;2023-02-01T15:51:51;5.80;99.90
50570;DHT22;36525;49.398;7.614;2023-02-01T15:54:23;5.90;99.90
50570;DHT22;36525;49.398;7.614;2023-02-01T15:56:54;5.90;99.90
50570;DHT22;36525;49.398;7.614;2023-02-01T15:59:25;5.90;99.90
50570;DHT22;36525;49.398;7.614;2023-02-01T16:01:56;5.80;99.90
50570;DHT22;36525;49.398;7.614;2023-02-01T16:04:25;5.70;99.90
50570;DHT22;36525;49.398;7.614;2023-02-01T16:07:00;5.70;99.90
50570;DHT22;36525;49.398;7.614;2023-02-01T16:09:38;5.60;99.90
50570;DHT22;36525;49.398;7.614;2023-02-01T16:15:05;5.50;99.90
50570;DHT22;36525;49.398;7.614;2023-02-01T16:17:32;5.50;99.90
50570;DHT22;36525;49.398;7.614;2023-02-01T16:19:59;5.50;99.90
50570;DHT22;36525;49.398;7.614;2023-02-01T16:22:26;5.50;99.90
50570;DHT22;36525;49.398;7.614;2023-02-01T16:24:53;5.60;99.90
50570;DHT22;36525;49.398;7.614;2023-02-01T16:27:20;5.50;99.90
50570;DHT22;36525;49.398;7.614;2023-02-01T16:29:49;5.50;99.90
50570;DHT22;36525;49.398;7.614;2023-02-01T16:32:21;5.40;99.90
50570;DHT22;36525;49.398;7.614;2023-02-01T16:34:48;5.40;99.90
50570;DHT22;36525;49.398;7.614;2023-02-01T16:37:20;5.40;99.90
50570;DHT22;36525;49.398;7.614;2023-02-01T16:39:48;5.40;99.90
50570;DHT22;36525;49.398;7.614;2023-02-01T16:42:16;5.40;99.90
50570;DHT22;36525;49.398;7.614;2023-02-01T16:44:43;5.40;99.90
50570;DHT22;36525;49.398;7.614;2023-02-01T16:47:17;5.30;99.90
50570;DHT22;36525;49.398;7.614;2023-02-01T16:49:49;5.30;99.90
50570;DHT22;36525;49.398;7.614;2023-02-01T16:52:20;5.30;99.90
50570;DHT22;36525;49.398;7.614;2023-02-01T16:54:48;5.30;99.90
50570;DHT22;36525;49.398;7.614;2023-02-01T16:57:17;5.40;99.90
50570;DHT22;36525;49.398;7.614;2023-02-01T16:59:46;5.40;99.90
50570;DHT22;36525;49.398;7.614;2023-02-01T17:02:18;5.40;99.90
50570;DHT22;36525;49.398;7.614;2023-02-01T17:04:46;5.30;99.90
50570;DHT22;36525;49.398;7.614;2023-02-01T17:07:17;5.20;99.90
50570;DHT22;36525;49.398;7.614;2023-02-01T17:09:46;5.20;99.90
50570;DHT22;36525;49.398;7.614;2023-02-01T17:12:32;5.20;99.90
50570;DHT22;36525;49.398;7.614;2023-02-01T17:15:00;5.30;99.90
50570;DHT22;36525;49.398;7.614;2023-02-01T17:17:32;5.30;99.90
50570;DHT22;36525;49.398;7.614;2023-02-01T17:20:06;5.30;99.90
50570;DHT22;36525;49.398;7.614;2023-02-01T17:22:33;5.30;99.90
50570;DHT22;36525;49.398;7.614;2023-02-01T17:25:00;5.40;99.90
50570;DHT22;36525;49.398;7.614;2023-02-01T17:27:32;5.50;99.90
50570;DHT22;36525;49.398;7.614;2023-02-01T17:29:59;5.50;99.90
50570;DHT22;36525;49.398;7.614;2023-02-01T17:32:30;5.50;99.90
50570;DHT22;36525;49.398;7.614;2023-02-01T17:34:57;5.50;99.90
50570;DHT22;36525;49.398;7.614;2023-02-01T17:37:30;5.50;99.90
50570;DHT22;36525;49.398;7.614;2023-02-01T17:39:59;5.50;99.90
50570;DHT22;36525;49.398;7.614;2023-02-01T17:42:28;5.50;99.90
50570;DHT22;36525;49.398;7.614;2023-02-01T17:44:59;5.40;99.90
50570;DHT22;36525;49.398;7.614;2023-02-01T17:47:28;5.40;99.90
50570;DHT22;36525;49.398;7.614;2023-02-01T17:49:55;5.30;99.90
50570;DHT22;36525;49.398;7.614;2023-02-01T17:52:25;5.30;99.90
50570;DHT22;36525;49.398;7.614;2023-02-01T17:54:52;5.40;99.90
50570;DHT22;36525;49.398;7.614;2023-02-01T17:57:20;5.30;99.90
50570;DHT22;36525;49.398;7.614;2023-02-01T17:59:47;5.30;99.90
50570;DHT22;36525;49.398;7.614;2023-02-01T18:02:20;5.30;99.90
50570;DHT22;36525;49.398;7.614;2023-02-01T18:04:49;5.30;99.90
50570;DHT22;36525;49.398;7.614;2023-02-01T18:07:17;5.30;99.90
50570;DHT22;36525;49.398;7.614;2023-02-01T18:09:44;5.30;99.90
50570;DHT22;36525;49.398;7.614;2023-02-01T18:12:29;5.30;99.90
50570;DHT22;36525;49.398;7.614;2023-02-01T18:14:58;5.20;99.90
50570;DHT22;36525;49.398;7.614;2023-02-01T18:17:25;5.30;99.90
50570;DHT22;36525;49.398;7.614;2023-02-01T18:19:51;5.30;99.90
50570;DHT22;36525;49.398;7.614;2023-02-01T18:22:22;5.20;99.90
50570;DHT22;36525;49.398;7.614;2023-02-01T18:24:50;5.30;99.90
50570;DHT22;36525;49.398;7.614;2023-02-01T18:27:20;5.30;99.90
50570;DHT22;36525;49.398;7.614;2023-02-01T18:29:46;5.40;99.90
50570;DHT22;36525;49.398;7.614;2023-02-01T18:32:14;5.50;99.90
50570;DHT22;36525;49.398;7.614;2023-02-01T18:34:41;5.50;99.90
50570;DHT22;36525;49.398;7.614;2023-02-01T18:37:11;5.50;99.90
50570;DHT22;36525;49.398;7.614;2023-02-01T18:39:38;5.50;99.90
50570;DHT22;36525;49.398;7.614;2023-02-01T18:42:05;5.60;99.90
50570;DHT22;36525;49.398;7.614;2023-02-01T18:44:32;5.50;99.90
50570;DHT22;36525;49.398;7.614;2023-02-01T18:46:59;5.50;99.90
50570;DHT22;36525;49.398;7.614;2023-02-01T18:49:26;5.60;99.90
50570;DHT22;36525;49.398;7.614;2023-02-01T18:51:53;5.50;99.90
50570;DHT22;36525;49.398;7.614;2023-02-01T18:54:20;5.50;99.90
50570;DHT22;36525;49.398;7.614;2023-02-01T18:56:47;5.50;99.90
50570;DHT22;36525;49.398;7.614;2023-02-01T18:59:14;5.50;99.90
50570;DHT22;36525;49.398;7.614;2023-02-01T19:01:43;5.60;99.90
50570;DHT22;36525;49.398;7.614;2023-02-01T19:04:12;5.60;99.90
50570;DHT22;36525;49.398;7.614;2023-02-01T19:06:50;5.60;99.90
50570;DHT22;36525;49.398;7.614;2023-02-01T19:09:17;5.50;99.90
50570;DHT22;36525;49.398;7.614;2023-02-01T19:11:44;5.60;99.90
50570;DHT22;36525;49.398;7.614;2023-02-01T19:14:11;5.50;99.90
50570;DHT22;36525;49.398;7.614;2023-02-01T19:16:38;5.50;99.90
50570;DHT22;36525;49.398;7.614;2023-02-01T19:19:05;5.60;99.90
50570;DHT22;36525;49.398;7.614;2023-02-01T19:21:32;5.60;99.90
50570;DHT22;36525;49.398;7.614;2023-02-01T19:23:59;5.60;99.90
50570;DHT22;36525;49.398;7.614;2023-02-01T19:26:26;5.60;99.90
50570;DHT22;36525;49.398;7.614;2023-02-01T19:28:56;5.60;99.90